createdAt,value
2023-03-15T00:00:00.768Z,1.10
2023-03-15T00:02:30.209Z,1.10
2023-03-15T00:05:01.031Z,1.00
2023-03-15T00:07:36.503Z,1.30
2023-03-15T00:10:55.446Z,1.10
2023-03-15T00:13:27.616Z,1.50
2023-03-15T00:16:03.398Z,1.50
2023-03-15T00:18:35.026Z,1.20
2023-03-15T00:21:05.673Z,1.30
2023-03-15T00:23:36.169Z,1.50
2023-03-15T00:26:06.376Z,1.20
2023-03-15T00:28:38.145Z,1.90
2023-03-15T00:31:33.832Z,1.10
2023-03-15T00:34:06.206Z,0.80
2023-03-15T00:36:35.615Z,1.60
2023-03-15T00:39:06.490Z,1.30
2023-03-15T00:41:35.580Z,1.10
2023-03-15T00:44:07.484Z,1.90
2023-03-15T00:46:37.532Z,1.40
2023-03-15T00:49:09.256Z,1.20
2023-03-15T00:51:39.512Z,0.90
2023-03-15T00:54:14.241Z,1.10
2023-03-15T00:56:46.088Z,1.10
2023-03-15T00:59:15.243Z,1.20
2023-03-15T01:01:46.173Z,1.20
2023-03-15T01:04:17.584Z,1.20
2023-03-15T01:06:49.353Z,1.70
2023-03-15T01:09:19.045Z,1.70
2023-03-15T01:11:48.619Z,1.60
2023-03-15T01:14:19.363Z,1.10
2023-03-15T01:16:49.227Z,3.50
2023-03-15T01:19:19.416Z,1.50
2023-03-15T01:21:50.358Z,2.00
2023-03-15T01:24:21.000Z,1.80
2023-03-15T01:26:52.624Z,1.40
2023-03-15T01:29:23.349Z,2.60
2023-03-15T01:31:52.495Z,2.10
2023-03-15T01:34:23.900Z,1.70
2023-03-15T01:36:54.291Z,1.70
2023-03-15T01:39:31.207Z,2.80
2023-03-15T01:42:02.806Z,1.40
2023-03-15T01:44:54.153Z,1.30
2023-03-15T01:47:26.733Z,1.60
2023-03-15T01:50:11.008Z,1.70
2023-03-15T01:52:43.427Z,2.30
2023-03-15T01:55:22.615Z,1.60
2023-03-15T01:58:07.325Z,1.70
2023-03-15T02:00:39.759Z,1.90
2023-03-15T02:03:16.622Z,2.70
2023-03-15T02:05:55.138Z,1.70
2023-03-15T02:08:39.331Z,2.60
2023-03-15T02:11:35.488Z,2.60
2023-03-15T02:14:08.528Z,3.20
2023-03-15T02:16:42.646Z,2.30
2023-03-15T02:19:41.656Z,2.30
2023-03-15T02:22:50.918Z,2.40
2023-03-15T02:25:55.038Z,2.50
2023-03-15T02:28:26.125Z,2.60
2023-03-15T02:30:56.511Z,3.20
2023-03-15T02:33:59.952Z,2.20
2023-03-15T02:36:32.449Z,2.80
2023-03-15T02:39:03.890Z,4.10
2023-03-15T02:41:37.190Z,2.80
2023-03-15T02:44:12.115Z,3.10
2023-03-15T02:46:44.619Z,3.00
2023-03-15T02:49:17.511Z,3.20
2023-03-15T02:51:46.574Z,3.80
2023-03-15T02:54:18.890Z,2.90
2023-03-15T02:56:49.005Z,3.10
2023-03-15T02:59:21.704Z,3.40
2023-03-15T03:01:53.234Z,3.40
2023-03-15T03:04:25.684Z,2.80
2023-03-15T03:06:55.542Z,2.60
2023-03-15T03:09:27.026Z,2.70
2023-03-15T03:12:01.562Z,3.40
2023-03-15T03:14:32.027Z,3.00
2023-03-15T03:17:03.091Z,3.20
2023-03-15T03:19:36.097Z,3.10
2023-03-15T03:22:04.972Z,2.70
2023-03-15T03:24:34.276Z,4.70
2023-03-15T03:27:06.603Z,6.00
2023-03-15T03:29:38.377Z,3.20
2023-03-15T03:32:09.813Z,2.80
2023-03-15T03:34:40.074Z,3.20
2023-03-15T03:37:10.245Z,3.00
2023-03-15T03:40:01.099Z,3.30
2023-03-15T03:42:32.053Z,3.60
2023-03-15T03:45:04.835Z,3.10
2023-03-15T03:47:37.855Z,2.90
2023-03-15T03:50:13.196Z,4.10
2023-03-15T03:52:46.945Z,3.80
2023-03-15T03:55:25.575Z,4.40
2023-03-15T03:57:58.071Z,4.30
2023-03-15T04:00:42.349Z,2.70
2023-03-15T04:03:15.628Z,2.60
2023-03-15T04:05:53.304Z,2.70
2023-03-15T04:08:27.908Z,4.30
2023-03-15T04:10:59.919Z,2.90
2023-03-15T04:13:32.492Z,2.90
2023-03-15T04:16:04.332Z,2.90
2023-03-15T04:18:41.999Z,3.60
2023-03-15T04:21:11.248Z,3.70
2023-03-15T04:23:43.604Z,4.00
2023-03-15T04:26:26.901Z,3.10
2023-03-15T04:28:58.080Z,2.90
2023-03-15T04:32:05.078Z,3.90
2023-03-15T04:35:10.095Z,3.00
2023-03-15T04:37:56.184Z,5.50
2023-03-15T04:40:52.606Z,3.40
2023-03-15T04:43:29.692Z,3.10
2023-03-15T04:46:18.178Z,2.10
2023-03-15T04:51:52.467Z,2.80
2023-03-15T04:54:30.891Z,2.60
2023-03-15T04:57:14.470Z,2.10
2023-03-15T05:00:06.929Z,4.30
2023-03-15T05:02:42.058Z,3.20
2023-03-15T05:05:25.343Z,3.70
2023-03-15T05:08:28.226Z,4.30
2023-03-15T05:11:17.932Z,6.20
2023-03-15T05:13:51.698Z,5.60
2023-03-15T05:16:37.042Z,3.10
2023-03-15T05:19:44.558Z,3.00
2023-03-15T05:22:34.047Z,2.90
2023-03-15T05:25:24.841Z,2.90
2023-03-15T05:28:05.689Z,2.60
2023-03-15T05:30:56.031Z,3.00
2023-03-15T05:33:51.892Z,5.30
2023-03-15T05:36:28.192Z,5.40
2023-03-15T05:39:19.620Z,4.00
2023-03-15T05:42:17.044Z,10.40
2023-03-15T05:45:08.588Z,8.70
2023-03-15T05:47:54.970Z,3.80
2023-03-15T05:50:44.850Z,3.60
2023-03-15T05:53:36.233Z,5.90
2023-03-15T05:56:37.377Z,3.30
2023-03-15T05:59:21.578Z,15.40
2023-03-15T06:02:09.077Z,7.20
2023-03-15T06:04:45.952Z,5.30
2023-03-15T06:07:21.716Z,4.00
2023-03-15T06:09:53.165Z,6.20
2023-03-15T06:12:23.736Z,6.40
2023-03-15T06:14:54.200Z,5.50
2023-03-15T06:17:24.790Z,7.40
2023-03-15T06:19:54.679Z,7.70
2023-03-15T06:22:25.511Z,6.20
2023-03-15T06:24:59.669Z,5.80
2023-03-15T06:27:29.595Z,7.80
2023-03-15T06:29:59.907Z,9.10
2023-03-15T06:32:29.271Z,7.10
2023-03-15T06:35:00.774Z,4.80
2023-03-15T06:37:35.400Z,5.90
2023-03-15T06:40:09.342Z,5.60
2023-03-15T06:42:44.700Z,4.40
2023-03-15T06:45:16.846Z,5.00
2023-03-15T06:47:48.617Z,5.30
2023-03-15T06:50:19.734Z,3.70
2023-03-15T06:52:49.623Z,4.40
2023-03-15T06:55:18.945Z,4.30
2023-03-15T06:57:50.734Z,4.50
2023-03-15T07:00:24.985Z,4.70
2023-03-15T07:02:56.422Z,5.90
2023-03-15T07:05:26.449Z,5.10
2023-03-15T07:07:58.994Z,6.50
2023-03-15T07:10:41.836Z,4.90
2023-03-15T07:13:11.467Z,6.00
2023-03-15T07:15:41.251Z,3.90
2023-03-15T07:18:10.447Z,5.30
2023-03-15T07:20:39.675Z,6.50
2023-03-15T07:23:09.540Z,5.40
2023-03-15T07:25:54.149Z,4.50
2023-03-15T07:30:55.870Z,3.70
2023-03-15T07:33:26.888Z,3.90
2023-03-15T07:35:57.126Z,4.20
2023-03-15T07:38:31.514Z,3.40
2023-03-15T07:41:06.514Z,5.90
2023-03-15T07:43:36.901Z,3.40
2023-03-15T07:46:19.297Z,3.80
2023-03-15T07:48:49.787Z,3.40
2023-03-15T07:51:21.575Z,3.30
2023-03-15T07:53:54.083Z,3.70
2023-03-15T07:56:25.454Z,3.40
2023-03-15T07:58:54.526Z,4.10
2023-03-15T08:01:23.542Z,4.20
2023-03-15T08:03:56.072Z,6.50
2023-03-15T08:06:25.840Z,7.70
2023-03-15T08:08:54.820Z,5.20
2023-03-15T08:11:28.448Z,3.40
2023-03-15T08:14:00.564Z,4.00
2023-03-15T08:16:33.142Z,4.40
2023-03-15T08:19:03.039Z,3.90
2023-03-15T08:21:35.261Z,4.50
2023-03-15T08:24:07.166Z,4.90
2023-03-15T08:26:36.995Z,4.20
2023-03-15T08:29:08.193Z,4.40
2023-03-15T08:31:37.655Z,4.90
2023-03-15T08:34:06.679Z,4.90
2023-03-15T08:36:39.937Z,3.40
2023-03-15T08:39:10.518Z,4.90
2023-03-15T08:41:42.203Z,3.50
2023-03-15T08:44:12.786Z,4.20
2023-03-15T08:46:45.673Z,4.30
2023-03-15T08:49:20.008Z,4.10
2023-03-15T08:51:51.474Z,4.50
2023-03-15T08:54:22.159Z,4.20
2023-03-15T08:56:52.898Z,3.20
2023-03-15T09:02:17.535Z,3.00
2023-03-15T09:04:47.188Z,3.20
2023-03-15T09:07:18.673Z,3.70
2023-03-15T09:09:53.223Z,3.10
2023-03-15T09:14:52.009Z,3.10
2023-03-15T09:17:21.509Z,3.70
2023-03-15T09:19:53.860Z,3.50
2023-03-15T09:22:38.648Z,3.10
2023-03-15T09:25:10.504Z,4.70
2023-03-15T09:27:42.069Z,5.40
2023-03-15T09:30:14.676Z,5.30
2023-03-15T09:32:44.625Z,4.00
2023-03-15T09:35:20.086Z,4.80
2023-03-15T09:37:51.489Z,3.10
2023-03-15T09:40:42.046Z,3.80
2023-03-15T09:43:45.243Z,3.00
2023-03-15T09:46:37.440Z,5.40
2023-03-15T09:49:48.910Z,3.40
2023-03-15T09:55:19.024Z,2.90
2023-03-15T09:57:54.604Z,2.50
2023-03-15T10:00:50.175Z,2.90
2023-03-15T10:03:22.312Z,2.40
2023-03-15T10:06:03.121Z,3.30
2023-03-15T10:08:32.497Z,3.80
2023-03-15T10:11:35.820Z,3.20
2023-03-15T10:14:17.448Z,3.30
2023-03-15T10:16:49.023Z,3.70
2023-03-15T10:19:38.068Z,3.50
2023-03-15T10:22:38.486Z,4.10
2023-03-15T10:25:18.171Z,3.80
2023-03-15T10:28:10.395Z,5.40
2023-03-15T10:30:41.221Z,4.30
2023-03-15T10:33:34.882Z,4.40
2023-03-15T10:36:19.181Z,3.80
2023-03-15T10:38:49.479Z,3.90
2023-03-15T10:41:40.867Z,3.70
2023-03-15T10:44:23.724Z,3.60
2023-03-15T10:47:23.558Z,3.50
2023-03-15T10:50:00.298Z,3.80
2023-03-15T10:52:37.970Z,4.20
2023-03-15T10:55:12.105Z,4.30
2023-03-15T10:57:52.310Z,3.40
2023-03-15T11:00:33.822Z,4.60
2023-03-15T11:03:24.278Z,3.90
2023-03-15T11:05:59.289Z,4.30
2023-03-15T11:08:41.381Z,4.90
2023-03-15T11:11:12.298Z,4.00
2023-03-15T11:13:43.461Z,24.20
2023-03-15T11:16:15.800Z,4.70
2023-03-15T11:18:55.328Z,4.50
2023-03-15T11:21:31.173Z,4.30
2023-03-15T11:24:06.795Z,4.60
2023-03-15T11:26:42.934Z,4.30
2023-03-15T11:29:37.532Z,5.00
2023-03-15T11:32:18.586Z,4.20
2023-03-15T11:35:14.600Z,4.50
2023-03-15T11:37:58.453Z,5.20
2023-03-15T11:40:52.549Z,11.30
2023-03-15T11:43:36.403Z,4.70
2023-03-15T11:46:15.213Z,4.20
2023-03-15T11:48:55.877Z,4.00
2023-03-15T11:51:33.896Z,4.00
2023-03-15T11:54:14.460Z,5.40
2023-03-15T11:56:44.942Z,4.20
2023-03-15T11:59:18.779Z,4.20
2023-03-15T12:04:26.965Z,4.10
2023-03-15T12:06:59.567Z,4.70
2023-03-15T12:09:57.012Z,4.70
2023-03-15T12:12:47.927Z,4.30
2023-03-15T12:15:20.154Z,4.60
2023-03-15T12:17:57.947Z,5.30
2023-03-15T12:21:11.665Z,5.70
2023-03-15T12:23:59.782Z,6.50
2023-03-15T12:26:43.312Z,7.10
2023-03-15T12:29:19.230Z,4.30
2023-03-15T12:31:58.520Z,4.70
2023-03-15T12:34:37.780Z,7.50
2023-03-15T12:37:18.856Z,8.00
2023-03-15T12:40:00.967Z,5.50
2023-03-15T12:42:35.512Z,5.00
2023-03-15T12:45:18.459Z,4.30
2023-03-15T12:48:13.347Z,4.30
2023-03-15T12:50:46.282Z,3.00
2023-03-15T12:53:40.345Z,3.60
2023-03-15T12:58:55.143Z,3.70
2023-03-15T13:01:27.103Z,3.50
2023-03-15T13:03:59.879Z,3.80
2023-03-15T13:06:56.673Z,4.40
2023-03-15T13:09:39.382Z,3.60
2023-03-15T13:12:29.568Z,4.00
2023-03-15T13:15:13.084Z,3.80
2023-03-15T13:18:04.981Z,3.40
2023-03-15T13:20:56.856Z,4.60
2023-03-15T13:23:52.662Z,4.00
2023-03-15T13:26:36.263Z,6.50
2023-03-15T13:29:12.120Z,4.40
2023-03-15T13:31:45.472Z,9.80
2023-03-15T13:34:22.487Z,14.20
2023-03-15T13:37:02.647Z,5.20
2023-03-15T13:39:36.864Z,4.10
2023-03-15T13:42:20.568Z,3.00
2023-03-15T13:44:50.118Z,4.50
2023-03-15T13:47:22.589Z,4.70
2023-03-15T13:49:54.221Z,6.30
2023-03-15T13:52:37.708Z,5.00
2023-03-15T13:58:01.089Z,8.30
2023-03-15T14:00:35.251Z,4.90
2023-03-15T14:03:13.542Z,4.40
2023-03-15T14:05:47.373Z,4.00
2023-03-15T14:08:38.381Z,4.10
2023-03-15T14:11:32.117Z,4.30
2023-03-15T14:14:07.311Z,3.70
2023-03-15T14:17:03.020Z,4.10
2023-03-15T14:19:37.181Z,5.00
2023-03-15T14:22:18.844Z,3.50
2023-03-15T14:24:51.540Z,3.20
2023-03-15T14:27:23.726Z,4.00
2023-03-15T14:29:55.771Z,3.80
2023-03-15T14:32:54.033Z,3.30
2023-03-15T14:35:42.380Z,2.90
2023-03-15T14:38:21.577Z,3.40
2023-03-15T14:40:52.258Z,2.90
2023-03-15T14:43:22.506Z,3.10
2023-03-15T14:45:53.384Z,2.70
2023-03-15T14:48:30.281Z,2.80
2023-03-15T14:51:00.203Z,2.60
2023-03-15T14:53:36.472Z,2.40
2023-03-15T14:56:09.178Z,2.90
2023-03-15T14:58:42.826Z,2.90
2023-03-15T15:01:18.769Z,2.50
2023-03-15T15:04:04.396Z,2.80
2023-03-15T15:06:37.555Z,2.40
2023-03-15T15:09:08.023Z,3.00
2023-03-15T15:11:39.768Z,2.30
2023-03-15T15:14:18.148Z,2.80
2023-03-15T15:16:52.006Z,2.90
2023-03-15T15:19:25.005Z,2.60
2023-03-15T15:21:55.767Z,2.90
2023-03-15T15:24:29.433Z,2.80
2023-03-15T15:27:02.200Z,2.60
2023-03-15T15:29:33.095Z,3.90
2023-03-15T15:32:05.459Z,4.40
2023-03-15T15:34:39.541Z,2.70
2023-03-15T15:37:12.611Z,3.00
2023-03-15T15:39:43.169Z,2.90
2023-03-15T15:42:16.458Z,3.00
2023-03-15T15:44:47.049Z,3.10
2023-03-15T15:47:18.920Z,4.20
2023-03-15T15:49:48.946Z,3.00
2023-03-15T15:52:20.979Z,3.10
2023-03-15T15:54:52.627Z,2.80
2023-03-15T15:57:27.072Z,3.60
2023-03-15T15:59:56.228Z,2.80
2023-03-15T16:02:27.779Z,3.90
2023-03-15T16:04:59.945Z,3.60
2023-03-15T16:07:33.246Z,5.70
2023-03-15T16:10:03.408Z,7.90
2023-03-15T16:12:35.015Z,15.10
2023-03-15T16:15:05.795Z,17.00
2023-03-15T16:17:37.519Z,16.50
2023-03-15T16:20:12.889Z,16.30
2023-03-15T16:22:53.649Z,16.00
2023-03-15T16:25:28.909Z,13.50
2023-03-15T16:28:04.700Z,16.30
2023-03-15T16:30:36.206Z,15.40
2023-03-15T16:33:18.721Z,14.00
2023-03-15T16:35:51.096Z,11.20
2023-03-15T16:38:28.160Z,16.70
2023-03-15T16:40:59.892Z,20.50
2023-03-15T16:43:32.069Z,22.40
2023-03-15T16:46:03.724Z,21.40
2023-03-15T16:48:37.690Z,19.10
2023-03-15T16:51:09.730Z,25.90
2023-03-15T16:53:46.167Z,33.50
2023-03-15T16:56:19.326Z,32.80
2023-03-15T16:58:54.133Z,31.60
2023-03-15T17:01:31.701Z,33.10
2023-03-15T17:04:10.917Z,66.10
2023-03-15T17:09:27.108Z,65.90
2023-03-15T17:12:01.104Z,83.30
2023-03-15T17:14:38.692Z,16.20
2023-03-15T17:17:13.436Z,56.80
2023-03-15T17:22:24.052Z,19.50
2023-03-15T17:24:58.668Z,15.90
2023-03-15T17:27:40.532Z,17.70
2023-03-15T17:30:34.604Z,16.00
2023-03-15T17:35:48.572Z,16.30
2023-03-15T17:38:27.369Z,105.10
2023-03-15T17:41:00.132Z,43.80
2023-03-15T17:43:32.897Z,23.10
2023-03-15T17:46:05.466Z,44.00
2023-03-15T17:48:40.642Z,19.60
2023-03-15T17:51:22.330Z,32.60
2023-03-15T17:53:53.691Z,45.70
2023-03-15T17:56:24.996Z,93.40
2023-03-15T17:58:58.955Z,47.60
2023-03-15T18:01:33.067Z,24.10
2023-03-15T18:04:07.536Z,54.40
2023-03-15T18:06:41.288Z,62.90
2023-03-15T18:09:20.333Z,87.80
2023-03-15T18:11:52.257Z,23.20
2023-03-15T18:14:26.254Z,76.00
2023-03-15T18:16:58.948Z,37.80
2023-03-15T18:19:32.193Z,26.10
2023-03-15T18:22:06.156Z,22.60
2023-03-15T18:24:40.830Z,14.90
2023-03-15T18:27:14.177Z,12.90
2023-03-15T18:29:48.589Z,9.60
2023-03-15T18:32:22.538Z,8.20
2023-03-15T18:34:57.657Z,8.70
2023-03-15T18:37:32.198Z,8.30
2023-03-15T18:40:04.972Z,6.20
2023-03-15T18:42:38.556Z,6.00
2023-03-15T18:45:35.968Z,5.70
2023-03-15T18:48:08.363Z,21.80
2023-03-15T18:50:46.064Z,9.50
2023-03-15T18:53:21.768Z,8.40
2023-03-15T18:55:56.146Z,8.90
2023-03-15T18:58:35.253Z,12.70
2023-03-15T19:01:10.285Z,11.00
2023-03-15T19:03:44.003Z,12.40
2023-03-15T19:06:21.591Z,11.70
2023-03-15T19:08:55.805Z,9.00
2023-03-15T19:11:33.694Z,10.40
2023-03-15T19:14:07.213Z,16.20
2023-03-15T19:16:38.999Z,19.50
2023-03-15T19:19:12.085Z,13.90
2023-03-15T19:21:46.036Z,17.90
2023-03-15T19:24:17.614Z,21.20
2023-03-15T19:26:51.503Z,17.00
2023-03-15T19:29:29.586Z,19.40
2023-03-15T19:32:06.063Z,29.80
2023-03-15T19:34:43.693Z,43.40
2023-03-15T19:37:18.835Z,51.80
2023-03-15T19:39:53.705Z,29.60
2023-03-15T19:42:27.812Z,19.50
2023-03-15T19:45:09.015Z,20.40
2023-03-15T19:50:17.743Z,17.40
2023-03-15T19:52:52.667Z,17.20
2023-03-15T19:55:31.765Z,57.50
2023-03-15T19:58:06.270Z,99.80
2023-03-15T20:00:41.343Z,50.30
2023-03-15T20:03:14.471Z,332.90
2023-03-15T20:05:52.012Z,169.30
2023-03-15T20:08:27.810Z,81.30
2023-03-15T20:13:39.396Z,92.20
2023-03-15T20:16:17.848Z,37.60
2023-03-15T20:18:53.325Z,28.30
2023-03-15T20:21:25.246Z,65.90
2023-03-15T20:23:57.361Z,64.00
2023-03-15T20:26:34.544Z,19.90
2023-03-15T20:31:52.986Z,18.20
2023-03-15T20:34:25.453Z,18.10
2023-03-15T20:37:06.546Z,23.10
2023-03-15T20:39:43.746Z,25.50
2023-03-15T20:42:15.303Z,20.30
2023-03-15T20:44:48.750Z,31.60
2023-03-15T20:50:02.750Z,23.00
2023-03-15T20:52:43.676Z,21.30
2023-03-15T20:55:17.990Z,18.00
2023-03-15T20:57:50.837Z,20.40
2023-03-15T21:00:25.770Z,19.90
2023-03-15T21:03:00.488Z,19.00
2023-03-15T21:05:36.179Z,16.90
2023-03-15T21:08:09.814Z,20.20
2023-03-15T21:11:56.075Z,16.30
2023-03-15T21:14:30.550Z,19.80
2023-03-15T21:17:03.874Z,19.60
2023-03-15T21:19:40.817Z,20.90
2023-03-15T21:22:12.770Z,19.40
2023-03-15T21:24:55.018Z,20.90
2023-03-15T21:27:31.838Z,15.90
2023-03-15T21:30:03.854Z,15.90
2023-03-15T21:32:39.847Z,14.40
2023-03-15T21:35:12.382Z,14.10
2023-03-15T21:37:47.236Z,14.70
2023-03-15T21:42:51.030Z,15.20
2023-03-15T21:45:23.437Z,17.30
2023-03-15T21:47:54.532Z,19.70
2023-03-15T21:50:26.653Z,19.90
2023-03-15T21:52:57.915Z,22.70
2023-03-15T21:55:35.178Z,23.90
2023-03-15T21:58:10.240Z,17.10
2023-03-15T22:00:39.861Z,18.70
2023-03-15T22:03:14.035Z,17.70
2023-03-15T22:05:46.542Z,18.30
2023-03-15T22:08:16.784Z,13.10
2023-03-15T22:10:46.582Z,14.00
2023-03-15T22:13:19.203Z,15.60
2023-03-15T22:15:52.654Z,13.20
2023-03-15T22:18:24.200Z,14.80
2023-03-15T22:20:57.154Z,16.60
2023-03-15T22:23:26.685Z,14.70
2023-03-15T22:25:57.614Z,15.40
2023-03-15T22:28:26.847Z,13.50
2023-03-15T22:30:58.720Z,14.80
2023-03-15T22:33:29.750Z,13.20
2023-03-15T22:36:01.168Z,16.20
2023-03-15T22:38:38.157Z,15.70
2023-03-15T22:41:12.370Z,14.30
2023-03-15T22:43:42.893Z,11.90
2023-03-15T22:46:16.242Z,12.70
2023-03-15T22:48:45.949Z,13.50
2023-03-15T22:51:20.339Z,12.80
2023-03-15T22:53:52.455Z,13.00
2023-03-15T22:56:22.240Z,19.90
2023-03-15T22:58:56.038Z,18.80
2023-03-15T23:01:25.251Z,15.00
2023-03-15T23:03:55.943Z,22.70
2023-03-15T23:06:28.194Z,12.70
2023-03-15T23:08:57.301Z,12.70
2023-03-15T23:11:29.936Z,14.10
2023-03-15T23:14:02.571Z,13.20
2023-03-15T23:16:33.147Z,11.30
2023-03-15T23:19:13.886Z,10.80
2023-03-15T23:21:46.986Z,11.10
2023-03-15T23:24:19.403Z,11.80
2023-03-15T23:26:51.005Z,12.30
2023-03-15T23:29:23.606Z,10.10
2023-03-15T23:31:55.512Z,14.70
2023-03-15T23:34:26.326Z,13.70
2023-03-15T23:36:55.293Z,16.20
2023-03-15T23:39:30.181Z,13.30
2023-03-15T23:42:01.060Z,14.90
2023-03-15T23:44:30.604Z,15.20
2023-03-15T23:47:00.240Z,12.90
2023-03-15T23:49:33.451Z,13.30
2023-03-15T23:52:07.151Z,14.50
2023-03-15T23:54:41.711Z,12.20
2023-03-15T23:57:14.005Z,13.00
2023-03-15T23:59:46.224Z,13.90
